This is the latest recevied weather packets stored in our database for station/object K42C. If no packets are shown the sender has not sent any weather packets the latest 1 day(s).
| Time | Temp. | Humidity | Pressure | Rain* | Wind** | Luminosity | Snow |
|---|---|---|---|---|---|---|---|
| 1778076896 | 8.33° C | 69% | 975.6 hPa | 0 mm | 0.89 m/s, 158° | - | - |
| 1778076495 | 7.78° C | 70% | 975.7 hPa | 0 mm | 0 m/s | - | - |
| 1778076098 | 7.78° C | 73% | 975.7 hPa | 0 mm | 0 m/s | - | - |
| 1778075697 | 7.78° C | 74% | 975.7 hPa | 0 mm | 0 m/s | - | - |
| 1778075343 | 7.22° C | 78% | 975.7 hPa | 0 mm | 0 m/s | - | - |
| 1778073751 | 6.11° C | 82% | 975.8 hPa | 0 mm | 0 m/s | - | - |
| 1778073391 | 6.11° C | 84% | 975.9 hPa | 0 mm | 0 m/s | - | - |
| 1778072905 | 6.11° C | 85% | 976.1 hPa | 0 mm | 1.79 m/s, 13° | - | - |
| 1778072504 | 5.56° C | 87% | 976.1 hPa | 0 mm | 0.45 m/s, 90° | - | - |
| 1778072166 | 5.56° C | 87% | 976.1 hPa | 0 mm | 1.34 m/s, 80° | - | - |
| 1778071747 | 5° C | 89% | 976.2 hPa | 0 mm | 2.24 m/s, 107° | - | - |
| 1778071706 | 5° C | 89% | 976.2 hPa | 0 mm | 2.24 m/s, 107° | - | - |
| 1778069712 | 3.89° C | 94% | 976.3 hPa | 0 mm | 0 m/s | - | - |
| 1778069351 | 3.33° C | 95% | 976.4 hPa | 0 mm | 0 m/s | - | - |
| 1778069311 | 3.33° C | 95% | 976.4 hPa | 0 mm | 0 m/s | - | - |
| 1778068950 | 2.78° C | 96% | 976.3 hPa | 0 mm | 0 m/s | - | - |
| 1778067761 | 1.67° C | 99% | 976 hPa | 0 mm | 0 m/s | - | - |
| 1778067451 | 1.11° C | 99% | 976 hPa | 0 mm | 0 m/s | - | - |
| 1778067317 | 1.11° C | 99% | 976 hPa | 0 mm | 0 m/s | - | - |
| 1778065720 | 0.56° C | 100% | 975.8 hPa | 0 mm | 1.34 m/s, 4° | - | - |
| 1778064922 | 0.56° C | 99% | 975.8 hPa | 0 mm | 1.79 m/s, 20° | - | - |
| 1778064521 | 1.11° C | 99% | 975.8 hPa | 0 mm | 1.79 m/s, 11° | - | - |
| 1778064237 | 1.11° C | 99% | 975.9 hPa | 0 mm | 1.79 m/s, 347° | - | - |
| 1778063829 | 1.11° C | 99% | 975.8 hPa | 0 mm | 1.34 m/s, 335° | - | - |
| 1778063325 | 1.11° C | 98% | 976 hPa | 0 mm | 1.79 m/s, 353° | - | - |
* Rain latest hour (hover to see other rain measurements)
** Current wind speed in m/s (hover to see current wind gust speed)